Trans Exeter — 9HA2572 — position and weather

sailwx.info

Track history (hours):
 
Tides and Currents Weather Stations Pressure Air Temp Water Temp Dewpoint Dewpoint Depression Visibility Wind Speed Wind Dir Waves Ship Positions

Trans Exeter

Last reported at 2016-Jun-29 12:30 UTC. Time now 2016-Jun-29 14:37 UTC.
Position N 42°27' E 004°16'.

Length 118 m; draft 5 m.

Type: Ship (hazmat cat C). MMSI: 248908000.

Date/timePositionNaut miles runAvg speedWind from/ knotsBaromVisibWave heightAir tempDewpointWater temp
2016-Jun-29 12:30N 42°27' E 004°16'6014.6
2016-Jun-29 08:21N 41°39' E 003°28'1214.7
2016-Jun-29 07:33N 41°30' E 003°17'1514.4
2016-Jun-29 06:31N 41°18' E 003°06'1414.8
2016-Jun-29 05:33N 41°07' E 002°54'1514.9
2016-Jun-29 04:33N 40°54' E 002°43'1514.8
2016-Jun-29 03:33N 40°43' E 002°31'1515.0
2016-Jun-29 02:33N 40°31' E 002°19'1515.2
2016-Jun-29 01:33N 40°19' E 002°07'1515.5
2016-Jun-29 00:33N 40°07' E 001°54'1515.3
2016-Jun-28 23:33N 39°54' E 001°42'3015.1
2016-Jun-28 21:33N 39°30' E 001°19'1515.2
2016-Jun-28 20:33N 39°18' E 001°07'1614.9
2016-Jun-28 19:27N 39°05' E 000°54'1415.1
2016-Jun-28 18:31N 38°54' E 000°44'1414.8
2016-Jun-28 17:33N 38°42' E 000°33'2015.0
2016-Jun-28 16:12N 38°25' E 000°18'1314.8
2016-Jun-28 15:20N 38°15' E 000°09'1415.0
2016-Jun-28 14:23N 38°03' W 000°01'1414.3
2016-Jun-28 13:25N 37°51' W 000°10'1314.4
2016-Jun-28 12:33N 37°41' W 000°19'1414.3
2016-Jun-28 11:33N 37°28' W 000°28'1313.3
2016-Jun-28 10:33N 37°23' W 000°43'1211.7
2016-Jun-28 09:34N 37°29' W 000°56'6 5.2
2016-Jun-28 08:29N 37°34' W 000°58'2 0.1
2016-Jun-27 15:08N 37°34' W 001°00'2 0.1
2016-Jun-26 21:21N 37°33' W 001°03'1 0.0
2016-Jun-25 04:33N 37°33' W 001°02'10 9.8
2016-Jun-25 03:33N 37°29' W 000°50'1413.7
2016-Jun-25 02:33N 37°29' W 000°33'1414.5
2016-Jun-25 01:33N 37°29' W 000°15'1414.4
2016-Jun-25 00:33N 37°30' E 000°03'1413.8
2016-Jun-24 23:33N 37°30' E 000°21'1313.4
2016-Jun-24 22:33N 37°30' E 000°38'1313.2
2016-Jun-24 21:33N 37°30' E 000°55'1413.6
2016-Jun-24 20:33N 37°31' E 001°12'1413.9
2016-Jun-24 19:33N 37°31' E 001°29'1814.3
2016-Jun-24 18:19N 37°31' E 001°52'1114.4
2016-Jun-24 17:33N 37°31' E 002°05'1514.5
2016-Jun-24 16:33N 37°32' E 002°24'1614.1
2016-Jun-24 15:24N 37°33' E 002°44'1213.9
2016-Jun-24 14:33N 37°33' E 002°59'2013.7
2016-Jun-24 13:05N 37°33' E 003°24'713.7
2016-Jun-24 12:33N 37°33' E 003°33'1413.8
2016-Jun-24 11:33N 37°34' E 003°51'4214.0
2016-Jun-24 08:33N 37°34' E 004°44'25414.1
2016-Jun-23 14:28N 37°38' E 010°04'2513.1
2016-Jun-23 12:32N 37°39' E 010°36'14714.0
2016-Jun-23 02:05N 37°02' E 013°35'814.3
2016-Jun-23 01:33N 36°59' E 013°43'1413.9
2016-Jun-23 00:33N 36°52' E 013°59'1413.8
2016-Jun-22 23:33N 36°45' E 014°14'1414.0
2016-Jun-22 22:34N 36°39' E 014°29'1414.1
2016-Jun-22 21:33N 36°36' E 014°46'1413.9
2016-Jun-22 20:33N 36°34' E 015°04'1313.2
2016-Jun-22 19:33N 36°42' E 015°17'  
Track history (hours):
 
Tides and Currents Weather Stations Pressure Air Temp Water Temp Dewpoint Dewpoint Depression Visibility Wind Speed Wind Dir Waves Ship Positions

Trans Exeter

Last reported at 2016-Jun-29 12:30 UTC. Time now 2016-Jun-29 14:37 UTC.
Position N 42°27' E 004°16'.

Length 118 m; draft 5 m.

Type: Ship (hazmat cat C). MMSI: 248908000.

Date/timePositionNaut miles runAvg speedWind from/ knotsBaromVisibWave heightAir tempDewpointWater temp
2016-Jun-29 12:30N 42°27' E 004°16'6014.6
2016-Jun-29 08:21N 41°39' E 003°28'1214.7
2016-Jun-29 07:33N 41°30' E 003°17'1514.4
2016-Jun-29 06:31N 41°18' E 003°06'1414.8
2016-Jun-29 05:33N 41°07' E 002°54'1514.9
2016-Jun-29 04:33N 40°54' E 002°43'1514.8
2016-Jun-29 03:33N 40°43' E 002°31'1515.0
2016-Jun-29 02:33N 40°31' E 002°19'1515.2
2016-Jun-29 01:33N 40°19' E 002°07'1515.5
2016-Jun-29 00:33N 40°07' E 001°54'1515.3
2016-Jun-28 23:33N 39°54' E 001°42'3015.1
2016-Jun-28 21:33N 39°30' E 001°19'1515.2
2016-Jun-28 20:33N 39°18' E 001°07'1614.9
2016-Jun-28 19:27N 39°05' E 000°54'1415.1
2016-Jun-28 18:31N 38°54' E 000°44'1414.8
2016-Jun-28 17:33N 38°42' E 000°33'2015.0
2016-Jun-28 16:12N 38°25' E 000°18'1314.8
2016-Jun-28 15:20N 38°15' E 000°09'1415.0
2016-Jun-28 14:23N 38°03' W 000°01'1414.3
2016-Jun-28 13:25N 37°51' W 000°10'1314.4
2016-Jun-28 12:33N 37°41' W 000°19'1414.3
2016-Jun-28 11:33N 37°28' W 000°28'1313.3
2016-Jun-28 10:33N 37°23' W 000°43'1211.7
2016-Jun-28 09:34N 37°29' W 000°56'6 5.2
2016-Jun-28 08:29N 37°34' W 000°58'2 0.1
2016-Jun-27 15:08N 37°34' W 001°00'2 0.1
2016-Jun-26 21:21N 37°33' W 001°03'1 0.0
2016-Jun-25 04:33N 37°33' W 001°02'10 9.8
2016-Jun-25 03:33N 37°29' W 000°50'1413.7
2016-Jun-25 02:33N 37°29' W 000°33'1414.5
2016-Jun-25 01:33N 37°29' W 000°15'1414.4
2016-Jun-25 00:33N 37°30' E 000°03'1413.8
2016-Jun-24 23:33N 37°30' E 000°21'1313.4
2016-Jun-24 22:33N 37°30' E 000°38'1313.2
2016-Jun-24 21:33N 37°30' E 000°55'1413.6
2016-Jun-24 20:33N 37°31' E 001°12'1413.9
2016-Jun-24 19:33N 37°31' E 001°29'1814.3
2016-Jun-24 18:19N 37°31' E 001°52'1114.4
2016-Jun-24 17:33N 37°31' E 002°05'1514.5
2016-Jun-24 16:33N 37°32' E 002°24'1614.1
2016-Jun-24 15:24N 37°33' E 002°44'1213.9
2016-Jun-24 14:33N 37°33' E 002°59'2013.7
2016-Jun-24 13:05N 37°33' E 003°24'713.7
2016-Jun-24 12:33N 37°33' E 003°33'1413.8
2016-Jun-24 11:33N 37°34' E 003°51'4214.0
2016-Jun-24 08:33N 37°34' E 004°44'25414.1
2016-Jun-23 14:28N 37°38' E 010°04'2513.1
2016-Jun-23 12:32N 37°39' E 010°36'14714.0
2016-Jun-23 02:05N 37°02' E 013°35'814.3
2016-Jun-23 01:33N 36°59' E 013°43'1413.9
2016-Jun-23 00:33N 36°52' E 013°59'1413.8
2016-Jun-22 23:33N 36°45' E 014°14'1414.0
2016-Jun-22 22:34N 36°39' E 014°29'1414.1
2016-Jun-22 21:33N 36°36' E 014°46'1413.9
2016-Jun-22 20:33N 36°34' E 015°04'1313.2
2016-Jun-22 19:33N 36°42' E 015°17'  

Dump ship's entire track history